createdAt,value
2022-08-26T00:00:35.535Z,79.65
2022-08-26T00:01:35.504Z,79.85
2022-08-26T00:02:35.497Z,80.39
2022-08-26T00:03:35.562Z,79.96
2022-08-26T00:04:35.395Z,80.29
2022-08-26T00:05:35.359Z,80.95
2022-08-26T00:06:35.324Z,81.99
2022-08-26T00:07:35.290Z,81.09
2022-08-26T00:08:35.255Z,82.29
2022-08-26T00:09:37.238Z,81.49
2022-08-26T00:10:35.186Z,82.03
2022-08-26T00:11:35.149Z,82.73
2022-08-26T00:12:37.440Z,82.03
2022-08-26T00:13:35.077Z,81.83
2022-08-26T00:14:35.053Z,83.43
2022-08-26T00:15:35.005Z,83.13
2022-08-26T00:16:35.014Z,83.07
2022-08-26T00:17:34.935Z,83.03
2022-08-26T00:18:38.785Z,83.43
2022-08-26T00:19:34.864Z,84.13
2022-08-26T00:20:34.827Z,84.27
2022-08-26T00:21:34.806Z,84.61
2022-08-26T00:22:34.758Z,84.71
2022-08-26T00:23:34.721Z,84.71
2022-08-26T00:24:34.689Z,84.41
2022-08-26T00:25:34.649Z,85.21
2022-08-26T00:26:34.611Z,84.45
2022-08-26T00:27:34.586Z,85.01
2022-08-26T00:28:34.545Z,84.81
2022-08-26T00:29:34.825Z,85.11
2022-08-26T00:30:34.474Z,85.21
2022-08-26T00:31:34.458Z,85.91
2022-08-26T00:32:34.399Z,85.71
2022-08-26T00:33:34.380Z,85.96
2022-08-26T00:34:34.342Z,86.01
2022-08-26T00:35:34.292Z,85.75
2022-08-26T00:36:34.258Z,86.35
2022-08-26T00:37:34.220Z,85.66
2022-08-26T00:38:34.182Z,85.55
2022-08-26T00:39:34.156Z,85.66
2022-08-26T00:40:34.161Z,85.75
2022-08-26T00:41:34.076Z,85.96
2022-08-26T00:42:34.045Z,87.05
2022-08-26T00:43:46.249Z,87.40
2022-08-26T00:44:33.973Z,87.60
2022-08-26T00:45:33.969Z,88.00
2022-08-26T00:46:33.896Z,87.80
2022-08-26T00:47:33.860Z,87.40
2022-08-26T00:48:33.823Z,87.60
2022-08-26T00:49:33.801Z,88.50
2022-08-26T00:50:33.753Z,87.10
2022-08-26T00:51:33.733Z,87.50
2022-08-26T00:52:33.679Z,87.74
2022-08-26T00:53:33.644Z,87.44
2022-08-26T00:54:33.607Z,88.24
2022-08-26T00:55:37.787Z,89.04
2022-08-26T00:56:33.550Z,88.24
2022-08-26T00:57:33.500Z,88.95
2022-08-26T00:58:33.465Z,88.44
2022-08-26T00:59:33.427Z,87.88
2022-08-26T01:00:33.395Z,88.75
2022-08-26T01:01:33.409Z,88.64
2022-08-26T01:02:33.377Z,88.24
2022-08-26T01:03:33.286Z,87.68
2022-08-26T01:04:33.247Z,87.04
2022-08-26T01:05:33.225Z,87.94
2022-08-26T01:06:33.177Z,88.04
2022-08-26T01:07:33.147Z,88.04
2022-08-26T01:08:33.118Z,87.34
2022-08-26T01:09:33.065Z,86.48
2022-08-26T01:10:33.037Z,87.44
2022-08-26T01:11:32.998Z,87.44
2022-08-26T01:12:32.964Z,87.84
2022-08-26T01:13:32.926Z,88.40
2022-08-26T01:14:32.902Z,87.74
2022-08-26T01:15:33.044Z,87.34
2022-08-26T01:16:32.835Z,87.04
2022-08-26T01:17:33.732Z,88.04
2022-08-26T01:18:32.742Z,87.64
2022-08-26T01:19:32.705Z,87.74
2022-08-26T01:20:32.681Z,87.14
2022-08-26T01:21:32.637Z,87.70
2022-08-26T01:22:32.611Z,87.30
2022-08-26T01:23:32.559Z,87.80
2022-08-26T01:24:32.525Z,87.30
2022-08-26T01:25:32.487Z,87.50
2022-08-26T01:26:32.796Z,87.20
2022-08-26T01:27:32.729Z,88.40
2022-08-26T01:28:32.383Z,88.20
2022-08-26T01:29:32.343Z,89.00
2022-08-26T01:30:32.308Z,87.40
2022-08-26T01:31:32.323Z,88.20
2022-08-26T01:32:32.240Z,87.60
2022-08-26T01:33:40.043Z,87.66
2022-08-26T01:34:32.164Z,87.30
2022-08-26T01:35:32.126Z,87.70
2022-08-26T01:36:32.092Z,87.60
2022-08-26T01:37:32.070Z,88.40
2022-08-26T01:38:32.017Z,88.30
2022-08-26T01:39:31.981Z,88.06
2022-08-26T01:40:32.029Z,88.90
2022-08-26T01:41:31.909Z,88.40
2022-08-26T01:42:31.876Z,88.30
2022-08-26T01:43:31.846Z,88.60
2022-08-26T01:44:31.802Z,88.20
2022-08-26T01:45:31.800Z,88.40
2022-08-26T01:46:31.730Z,88.20
2022-08-26T01:47:31.695Z,88.90
2022-08-26T01:48:31.657Z,88.80
2022-08-26T01:49:31.976Z,89.11
2022-08-26T01:50:31.598Z,88.70
2022-08-26T01:51:31.547Z,89.54
2022-08-26T01:52:31.512Z,89.65
2022-08-26T01:53:31.475Z,90.45
2022-08-26T01:54:31.440Z,91.05
2022-08-26T01:55:33.081Z,90.65
2022-08-26T01:56:33.403Z,91.05
2022-08-26T01:57:31.332Z,90.65
2022-08-26T01:58:31.296Z,90.95
2022-08-26T01:59:31.260Z,91.35
2022-08-26T02:00:31.228Z,91.35
2022-08-26T02:01:31.198Z,91.65
2022-08-26T02:02:31.152Z,91.96
2022-08-26T02:03:31.155Z,92.35
2022-08-26T02:04:31.137Z,93.05
2022-08-26T02:05:31.041Z,92.15
2022-08-26T02:06:31.008Z,92.35
2022-08-26T02:07:30.980Z,92.25
2022-08-26T02:08:30.933Z,92.76
2022-08-26T02:09:30.922Z,93.21
2022-08-26T02:10:30.869Z,92.66
2022-08-26T02:11:30.833Z,92.96
2022-08-26T02:12:30.792Z,93.16
2022-08-26T02:13:30.765Z,93.66
2022-08-26T02:14:30.723Z,92.35
2022-08-26T02:15:30.680Z,93.36
2022-08-26T02:16:30.685Z,93.55
2022-08-26T02:17:30.608Z,93.36
2022-08-26T02:18:30.577Z,93.36
2022-08-26T02:19:30.546Z,94.06
2022-08-26T02:20:30.499Z,94.16
2022-08-26T02:21:30.464Z,94.20
2022-08-26T02:22:30.427Z,94.96
2022-08-26T02:23:30.386Z,94.51
2022-08-26T02:24:30.365Z,95.21
2022-08-26T02:25:30.327Z,94.46
2022-08-26T02:26:30.284Z,94.56
2022-08-26T02:27:32.214Z,95.06
2022-08-26T02:28:30.210Z,95.66
2022-08-26T02:29:30.170Z,95.86
2022-08-26T02:30:30.135Z,95.66
2022-08-26T02:31:30.135Z,95.66
2022-08-26T02:32:30.070Z,95.56
2022-08-26T02:33:30.029Z,95.71
2022-08-26T02:34:31.168Z,95.76
2022-08-26T02:35:29.953Z,96.17
2022-08-26T02:36:29.918Z,96.06
2022-08-26T02:37:29.892Z,96.36
2022-08-26T02:38:29.860Z,96.06
2022-08-26T02:39:29.808Z,96.56
2022-08-26T02:40:29.870Z,97.06
2022-08-26T02:41:29.741Z,96.26
2022-08-26T02:42:29.721Z,97.27
2022-08-26T02:43:31.772Z,97.11
2022-08-26T02:44:29.629Z,97.57
2022-08-26T02:45:29.597Z,97.06
2022-08-26T02:46:29.906Z,97.57
2022-08-26T02:47:29.518Z,97.67
2022-08-26T02:48:29.499Z,97.77
2022-08-26T02:49:29.445Z,97.27
2022-08-26T02:50:29.413Z,97.47
2022-08-26T02:51:29.374Z,97.67
2022-08-26T02:52:29.342Z,97.77
2022-08-26T02:53:31.840Z,97.47
2022-08-26T02:54:29.280Z,97.87
2022-08-26T02:55:29.228Z,98.37
2022-08-26T02:56:29.193Z,98.37
2022-08-26T02:57:29.166Z,97.87
2022-08-26T02:58:29.144Z,97.97
2022-08-26T02:59:29.082Z,98.02
2022-08-26T03:00:29.084Z,98.02
2022-08-26T03:01:29.036Z,98.52
2022-08-26T03:02:29.013Z,99.12
2022-08-26T03:03:28.939Z,98.92
2022-08-26T03:04:28.901Z,98.72
2022-08-26T03:05:28.883Z,99.12
2022-08-26T03:06:28.830Z,98.52
2022-08-26T03:07:28.791Z,99.32
2022-08-26T03:08:28.757Z,98.72
2022-08-26T03:09:28.717Z,99.02
2022-08-26T03:10:28.685Z,99.42
2022-08-26T03:11:33.035Z,99.22
2022-08-26T03:12:28.613Z,99.42
2022-08-26T03:13:28.575Z,99.72
2022-08-26T03:14:28.539Z,99.82
2022-08-26T03:15:28.500Z,99.99
2022-08-26T03:16:32.487Z,99.68
2022-08-26T03:17:28.439Z,99.57
2022-08-26T03:18:28.394Z,99.27
2022-08-26T03:19:28.357Z,99.99
2022-08-26T03:20:28.317Z,99.07
2022-08-26T03:21:28.283Z,99.37
2022-08-26T03:22:28.250Z,99.98
2022-08-26T03:23:28.231Z,99.87
2022-08-26T03:24:28.174Z,99.68
2022-08-26T03:25:28.138Z,99.68
2022-08-26T03:26:28.102Z,99.73
2022-08-26T03:27:28.064Z,99.43
2022-08-26T03:28:28.031Z,99.43
2022-08-26T03:29:28.007Z,99.93
2022-08-26T03:30:27.955Z,99.83
2022-08-26T03:31:27.938Z,99.99
2022-08-26T03:32:27.885Z,99.63
2022-08-26T03:33:27.849Z,99.99
2022-08-26T03:34:27.817Z,99.93
2022-08-26T03:35:27.788Z,99.88
2022-08-26T03:36:27.740Z,99.28
2022-08-26T03:37:27.706Z,98.98
2022-08-26T03:38:27.669Z,99.28
2022-08-26T03:39:27.630Z,99.18
2022-08-26T03:40:29.009Z,99.28
2022-08-26T03:41:27.574Z,99.48
2022-08-26T03:42:27.536Z,99.28
2022-08-26T03:43:27.485Z,98.58
2022-08-26T03:44:27.451Z,98.98
2022-08-26T03:45:27.413Z,98.58
2022-08-26T03:46:27.435Z,98.83
2022-08-26T03:47:27.354Z,98.73
2022-08-26T03:48:27.317Z,99.13
2022-08-26T03:49:28.938Z,99.03
2022-08-26T03:50:27.235Z,98.53
2022-08-26T03:51:27.196Z,98.33
2022-08-26T03:52:27.162Z,99.13
2022-08-26T03:53:27.135Z,99.23
2022-08-26T03:54:27.104Z,99.43
2022-08-26T03:55:27.281Z,97.93
2022-08-26T03:56:27.023Z,98.93
2022-08-26T03:57:26.986Z,99.03
2022-08-26T03:58:26.948Z,99.23
2022-08-26T03:59:26.910Z,99.43
2022-08-26T04:00:26.887Z,98.73
2022-08-26T04:01:26.892Z,98.43
2022-08-26T04:02:26.826Z,98.73
2022-08-26T04:03:26.823Z,98.88
2022-08-26T04:04:26.730Z,98.88
2022-08-26T04:05:26.693Z,98.58
2022-08-26T04:06:26.670Z,98.99
2022-08-26T04:07:26.618Z,98.83
2022-08-26T04:08:26.583Z,98.49
2022-08-26T04:09:26.561Z,98.58
2022-08-26T04:10:29.284Z,97.68
2022-08-26T04:11:26.477Z,98.49
2022-08-26T04:12:26.873Z,97.68
2022-08-26T04:13:26.410Z,98.99
2022-08-26T04:14:26.371Z,97.99
2022-08-26T04:15:26.346Z,98.88
2022-08-26T04:16:26.365Z,97.58
2022-08-26T04:17:26.261Z,98.18
2022-08-26T04:18:28.488Z,97.88
2022-08-26T04:19:26.192Z,97.99
2022-08-26T04:20:26.174Z,98.28
2022-08-26T04:21:26.117Z,98.49
2022-08-26T04:22:26.083Z,97.78
2022-08-26T04:23:26.045Z,98.28
2022-08-26T04:24:26.013Z,98.08
2022-08-26T04:25:25.976Z,98.18
2022-08-26T04:26:26.010Z,98.14
2022-08-26T04:27:25.901Z,98.18
2022-08-26T04:28:25.867Z,97.94
2022-08-26T04:29:25.833Z,97.28
2022-08-26T04:30:25.795Z,97.28
2022-08-26T04:31:25.820Z,97.84
2022-08-26T04:32:25.738Z,97.74
2022-08-26T04:33:32.222Z,97.24
2022-08-26T04:34:27.180Z,97.14
2022-08-26T04:35:26.271Z,96.64
2022-08-26T04:36:25.581Z,96.64
2022-08-26T04:37:25.544Z,96.59
2022-08-26T04:38:25.522Z,96.84
2022-08-26T04:39:25.470Z,96.44
2022-08-26T04:40:25.435Z,96.69
2022-08-26T04:41:25.400Z,96.29
2022-08-26T04:42:26.121Z,96.69
2022-08-26T04:43:25.328Z,96.53
2022-08-26T04:44:25.313Z,96.53
2022-08-26T04:45:25.270Z,96.59
2022-08-26T04:46:25.247Z,96.59
2022-08-26T04:47:29.139Z,96.04
2022-08-26T04:48:25.149Z,95.69
2022-08-26T04:49:26.159Z,96.09
2022-08-26T04:51:56.672Z,96.09
2022-08-26T04:52:56.625Z,95.69
2022-08-26T04:53:56.587Z,95.79
2022-08-26T04:54:56.557Z,95.69
2022-08-26T04:55:56.517Z,95.69
2022-08-26T04:56:56.483Z,95.69
2022-08-26T04:57:56.459Z,95.79
2022-08-26T04:58:56.415Z,95.49
2022-08-26T04:59:56.374Z,95.79
2022-08-26T05:00:56.336Z,95.84
2022-08-26T05:01:56.468Z,95.69
2022-08-26T05:02:56.270Z,95.69
2022-08-26T05:03:56.283Z,95.84
2022-08-26T05:04:56.200Z,95.04
2022-08-26T05:05:56.157Z,95.59
2022-08-26T05:07:02.272Z,95.19
2022-08-26T05:07:56.084Z,95.04
2022-08-26T05:08:56.052Z,95.59
2022-08-26T05:09:56.031Z,94.89
2022-08-26T05:10:56.071Z,95.29
2022-08-26T05:11:55.945Z,95.49
2022-08-26T05:12:55.915Z,95.04
2022-08-26T05:13:58.157Z,95.49
2022-08-26T05:14:55.835Z,95.39
2022-08-26T05:15:59.161Z,95.19
2022-08-26T05:16:55.765Z,95.04
2022-08-26T05:17:55.739Z,95.34
2022-08-26T05:18:55.694Z,95.15
2022-08-26T05:19:55.656Z,95.34
2022-08-26T05:20:55.621Z,95.84
2022-08-26T05:21:55.592Z,95.34
2022-08-26T05:22:55.557Z,95.29
2022-08-26T05:23:55.538Z,95.49
2022-08-26T05:24:55.485Z,95.19
2022-08-26T05:25:59.351Z,94.95
2022-08-26T05:26:56.450Z,94.95
2022-08-26T05:27:55.373Z,94.74
2022-08-26T05:28:55.371Z,95.04
2022-08-26T05:29:55.313Z,95.15
2022-08-26T05:30:55.300Z,95.54
2022-08-26T05:31:55.924Z,95.25
2022-08-26T05:32:55.459Z,95.45
2022-08-26T05:33:55.160Z,95.25
2022-08-26T05:34:55.120Z,95.45
2022-08-26T05:35:55.100Z,95.15
2022-08-26T05:36:55.052Z,94.54
2022-08-26T05:37:55.012Z,95.54
2022-08-26T05:38:54.988Z,95.25
2022-08-26T05:39:54.970Z,95.15
2022-08-26T05:40:54.910Z,95.25
2022-08-26T05:41:54.882Z,94.54
2022-08-26T05:42:54.837Z,95.34
2022-08-26T05:43:54.801Z,95.45
2022-08-26T05:44:55.742Z,95.29
2022-08-26T05:45:54.748Z,95.45
2022-08-26T05:46:54.693Z,95.25
2022-08-26T05:47:54.673Z,95.34
2022-08-26T05:48:54.623Z,96.04
2022-08-26T05:49:54.587Z,95.25
2022-08-26T05:50:54.554Z,95.34
2022-08-26T05:51:54.518Z,95.34
2022-08-26T05:52:54.510Z,95.19
2022-08-26T05:53:55.070Z,95.15
2022-08-26T05:54:54.411Z,95.34
2022-08-26T05:55:54.374Z,94.95
2022-08-26T05:56:54.342Z,95.79
2022-08-26T05:57:54.306Z,95.34
2022-08-26T05:58:54.268Z,94.54
2022-08-26T05:59:54.247Z,95.15
2022-08-26T06:00:54.195Z,95.15
2022-08-26T06:01:54.209Z,95.34
2022-08-26T06:02:54.154Z,95.34
2022-08-26T06:03:54.090Z,94.45
2022-08-26T06:04:54.058Z,95.25
2022-08-26T06:05:54.026Z,94.40
2022-08-26T06:06:53.984Z,94.24
2022-08-26T06:07:53.957Z,94.24
2022-08-26T06:08:53.915Z,94.20
2022-08-26T06:10:01.630Z,94.45
2022-08-26T06:10:53.856Z,94.24
2022-08-26T06:11:53.813Z,93.90
2022-08-26T06:12:53.793Z,94.20
2022-08-26T06:13:53.735Z,94.90
2022-08-26T06:14:53.709Z,93.50
2022-08-26T06:15:53.693Z,93.24
2022-08-26T06:16:53.628Z,92.90
2022-08-26T06:17:53.595Z,93.40
2022-08-26T06:18:53.557Z,93.90
2022-08-26T06:19:53.522Z,92.60
2022-08-26T06:20:57.670Z,93.60
2022-08-26T06:21:54.238Z,93.96
2022-08-26T06:22:53.414Z,92.60
2022-08-26T06:23:53.380Z,92.70
2022-08-26T06:24:53.347Z,92.40
2022-08-26T06:25:53.309Z,92.70
2022-08-26T06:26:53.285Z,92.50
2022-08-26T06:27:53.240Z,92.20
2022-08-26T06:28:53.225Z,91.76
2022-08-26T06:29:53.167Z,92.06
2022-08-26T06:30:53.168Z,91.36
2022-08-26T06:31:53.097Z,91.61
2022-08-26T06:32:53.062Z,91.66
2022-08-26T06:33:53.025Z,91.56
2022-08-26T06:34:53.007Z,91.52
2022-08-26T06:35:52.957Z,91.31
2022-08-26T06:36:53.155Z,91.11
2022-08-26T06:37:52.891Z,90.81
2022-08-26T06:38:52.849Z,90.81
2022-08-26T06:39:52.867Z,90.32
2022-08-26T06:40:52.791Z,90.28
2022-08-26T06:41:52.750Z,90.58
2022-08-26T06:42:52.718Z,90.08
2022-08-26T06:43:52.683Z,90.28
2022-08-26T06:44:52.645Z,89.98
2022-08-26T06:45:52.647Z,89.78
2022-08-26T06:46:52.603Z,88.88
2022-08-26T06:47:52.535Z,90.22
2022-08-26T06:48:52.499Z,89.28
2022-08-26T06:49:52.467Z,88.78
2022-08-26T06:50:52.430Z,88.88
2022-08-26T06:51:52.397Z,88.68
2022-08-26T06:52:52.375Z,88.68
2022-08-26T06:53:52.325Z,89.02
2022-08-26T06:54:52.288Z,89.32
2022-08-26T06:55:52.255Z,89.82
2022-08-26T06:56:52.218Z,89.42
2022-08-26T06:57:52.185Z,89.52
2022-08-26T06:58:52.161Z,89.78
2022-08-26T06:59:52.116Z,88.98
2022-08-26T07:00:52.080Z,89.58
2022-08-26T07:01:52.127Z,88.28
2022-08-26T07:02:52.071Z,88.78
2022-08-26T07:03:51.977Z,88.68
2022-08-26T07:04:51.951Z,87.98
2022-08-26T07:05:51.905Z,88.48
2022-08-26T07:06:52.667Z,88.28
2022-08-26T07:07:51.841Z,87.98
2022-08-26T07:08:51.801Z,88.18
2022-08-26T07:09:52.557Z,88.58
2022-08-26T07:10:51.736Z,88.28
2022-08-26T07:11:51.698Z,87.94
2022-08-26T07:12:51.663Z,88.58
2022-08-26T07:13:51.626Z,88.18
2022-08-26T07:14:51.608Z,88.13
2022-08-26T07:15:51.581Z,87.54
2022-08-26T07:16:51.522Z,88.13
2022-08-26T07:17:51.486Z,87.28
2022-08-26T07:18:51.450Z,87.98
2022-08-26T07:19:51.420Z,88.28
2022-08-26T07:20:51.397Z,88.68
2022-08-26T07:21:51.348Z,88.54
2022-08-26T07:22:51.326Z,88.43
2022-08-26T07:23:51.285Z,87.14
2022-08-26T07:24:51.252Z,88.04
2022-08-26T07:25:51.211Z,86.94
2022-08-26T07:26:51.186Z,87.24
2022-08-26T07:27:54.302Z,87.50
2022-08-26T07:28:51.114Z,87.04
2022-08-26T07:29:51.090Z,86.70
2022-08-26T07:30:51.106Z,87.50
2022-08-26T07:31:51.000Z,86.84
2022-08-26T07:32:50.968Z,86.60
2022-08-26T07:33:50.930Z,86.30
2022-08-26T07:34:50.922Z,86.15
2022-08-26T07:35:50.863Z,86.94
2022-08-26T07:36:50.828Z,86.94
2022-08-26T07:37:55.051Z,87.64
2022-08-26T07:38:50.763Z,86.94
2022-08-26T07:39:50.751Z,87.44
2022-08-26T07:40:50.702Z,87.54
2022-08-26T07:41:50.663Z,86.84
2022-08-26T07:42:50.624Z,86.54
2022-08-26T07:43:50.583Z,86.94
2022-08-26T07:44:50.551Z,87.98
2022-08-26T07:45:50.544Z,88.08
2022-08-26T07:46:52.329Z,87.48
2022-08-26T07:47:50.446Z,87.18
2022-08-26T07:48:50.426Z,87.08
2022-08-26T07:49:52.692Z,87.38
2022-08-26T07:50:50.813Z,87.88
2022-08-26T07:51:50.306Z,88.28
2022-08-26T07:52:50.273Z,88.32
2022-08-26T07:53:52.493Z,88.62
2022-08-26T07:54:50.217Z,88.48
2022-08-26T07:55:50.174Z,87.73
2022-08-26T07:56:50.133Z,88.22
2022-08-26T07:57:50.099Z,88.52
2022-08-26T07:58:51.796Z,88.52
2022-08-26T07:59:50.037Z,88.72
2022-08-26T08:00:50.006Z,88.52
2022-08-26T08:01:50.035Z,88.22
2022-08-26T08:02:49.925Z,88.32
2022-08-26T08:03:50.496Z,88.22
2022-08-26T08:04:49.929Z,88.48
2022-08-26T08:05:49.819Z,88.08
2022-08-26T08:06:49.797Z,88.12
2022-08-26T08:07:49.750Z,88.82
2022-08-26T08:08:50.731Z,88.82
2022-08-26T08:09:49.697Z,88.58
2022-08-26T08:10:49.644Z,88.38
2022-08-26T08:11:49.612Z,88.38
2022-08-26T08:12:49.585Z,88.38
2022-08-26T08:13:49.541Z,88.08
2022-08-26T08:14:49.505Z,88.28
2022-08-26T08:15:50.286Z,88.38
2022-08-26T08:16:51.151Z,87.58
2022-08-26T08:17:50.503Z,88.38
2022-08-26T08:18:49.380Z,88.08
2022-08-26T08:19:49.331Z,87.58
2022-08-26T08:20:59.395Z,87.38
2022-08-26T08:21:49.260Z,87.78
2022-08-26T08:22:49.225Z,88.48
2022-08-26T08:23:49.192Z,88.08
2022-08-26T08:24:49.958Z,87.48
2022-08-26T08:25:49.122Z,88.28
2022-08-26T08:26:49.087Z,88.34
2022-08-26T08:27:49.051Z,87.08
2022-08-26T08:28:49.019Z,88.38
2022-08-26T08:29:48.990Z,88.18
2022-08-26T08:30:49.000Z,88.34
2022-08-26T08:31:58.476Z,88.24
2022-08-26T08:32:48.876Z,86.74
2022-08-26T08:33:48.844Z,87.38
2022-08-26T08:34:48.809Z,87.68
2022-08-26T08:35:48.788Z,87.78
2022-08-26T08:36:48.760Z,86.79
2022-08-26T08:37:48.704Z,88.28
2022-08-26T08:38:48.668Z,87.98
2022-08-26T08:39:48.906Z,88.08
2022-08-26T08:40:48.599Z,87.08
2022-08-26T08:41:48.570Z,88.38
2022-08-26T08:42:48.576Z,88.08
2022-08-26T08:43:48.495Z,87.88
2022-08-26T08:44:52.160Z,87.73
2022-08-26T08:45:49.717Z,86.88
2022-08-26T08:46:48.390Z,87.88
2022-08-26T08:47:48.369Z,87.82
2022-08-26T08:48:48.322Z,88.18
2022-08-26T08:49:48.286Z,88.08
2022-08-26T08:50:48.250Z,87.08
2022-08-26T08:51:48.239Z,87.68
2022-08-26T08:52:48.183Z,87.28
2022-08-26T08:53:48.164Z,87.18
2022-08-26T08:54:48.110Z,87.18
2022-08-26T08:55:48.080Z,87.54
2022-08-26T08:56:48.043Z,86.84
2022-08-26T08:57:48.025Z,86.54
2022-08-26T08:58:47.970Z,86.84
2022-08-26T08:59:47.939Z,86.24
2022-08-26T09:00:47.906Z,85.85
2022-08-26T09:01:47.870Z,85.64
2022-08-26T09:02:47.900Z,85.94
2022-08-26T09:03:47.856Z,86.24
2022-08-26T09:04:47.763Z,85.85
2022-08-26T09:05:48.955Z,86.24
2022-08-26T09:06:47.718Z,86.90
2022-08-26T09:07:47.661Z,85.74
2022-08-26T09:08:47.634Z,86.24
2022-08-26T09:09:47.592Z,86.15
2022-08-26T09:10:47.568Z,86.34
2022-08-26T09:11:47.523Z,85.80
2022-08-26T09:12:47.485Z,86.00
2022-08-26T09:13:47.464Z,85.94
2022-08-26T09:14:47.416Z,85.85
2022-08-26T09:15:47.381Z,85.74
2022-08-26T09:16:47.450Z,86.04
2022-08-26T09:17:47.313Z,85.94
2022-08-26T09:18:47.277Z,85.80
2022-08-26T09:19:47.254Z,85.55
2022-08-26T09:20:47.211Z,86.54
2022-08-26T09:21:47.174Z,85.74
2022-08-26T09:22:47.137Z,86.20
2022-08-26T09:23:49.626Z,85.85
2022-08-26T09:24:48.432Z,86.15
2022-08-26T09:25:47.077Z,86.24
2022-08-26T09:26:47.401Z,86.34
2022-08-26T09:27:46.969Z,86.54
2022-08-26T09:28:46.931Z,86.24
2022-08-26T09:29:50.455Z,86.64
2022-08-26T09:30:46.912Z,86.04
2022-08-26T09:31:46.837Z,86.80
2022-08-26T09:32:56.140Z,85.25
2022-08-26T09:33:46.757Z,85.94
2022-08-26T09:34:46.725Z,86.15
2022-08-26T09:35:46.690Z,86.54
2022-08-26T09:36:46.654Z,86.54
2022-08-26T09:38:46.584Z,86.20
2022-08-26T09:39:46.549Z,86.04
2022-08-26T09:40:46.514Z,86.15
2022-08-26T09:41:46.480Z,85.85
2022-08-26T09:42:46.443Z,85.14
2022-08-26T09:43:46.422Z,86.08
2022-08-26T09:44:46.373Z,85.78
2022-08-26T09:45:50.706Z,85.49
2022-08-26T09:46:46.307Z,86.29
2022-08-26T09:47:46.291Z,86.58
2022-08-26T09:48:46.249Z,86.54
2022-08-26T09:49:46.199Z,86.38
2022-08-26T09:50:46.165Z,86.19
2022-08-26T09:51:46.130Z,87.24
2022-08-26T09:52:46.099Z,86.54
2022-08-26T09:53:46.067Z,86.84
2022-08-26T09:54:46.208Z,86.20
2022-08-26T09:55:45.993Z,85.50
2022-08-26T09:56:45.959Z,86.10
2022-08-26T09:57:45.922Z,85.57
2022-08-26T09:58:45.890Z,85.16
2022-08-26T09:59:45.856Z,84.51
2022-08-26T10:00:45.866Z,84.91
2022-08-26T10:01:45.870Z,84.41
2022-08-26T10:02:47.843Z,84.01
2022-08-26T10:03:45.715Z,84.31
2022-08-26T10:04:45.765Z,84.27
2022-08-26T10:05:45.648Z,84.77
2022-08-26T10:06:45.624Z,84.97
2022-08-26T10:07:45.575Z,83.97
2022-08-26T10:08:47.589Z,84.17
2022-08-26T10:09:45.506Z,84.11
2022-08-26T10:10:45.480Z,83.97
2022-08-26T10:11:45.450Z,83.77
2022-08-26T10:12:45.405Z,82.97
2022-08-26T10:13:45.368Z,83.87
2022-08-26T10:15:48.627Z,82.67
2022-08-26T10:16:45.418Z,83.03
2022-08-26T10:17:45.240Z,82.24
2022-08-26T10:18:45.199Z,82.64
2022-08-26T10:19:56.519Z,81.94
2022-08-26T10:20:45.130Z,82.54
2022-08-26T10:21:45.092Z,82.20
2022-08-26T10:22:45.061Z,82.50
2022-08-26T10:23:45.269Z,81.60
2022-08-26T10:24:44.997Z,80.90
2022-08-26T10:25:44.982Z,81.01
2022-08-26T10:26:44.923Z,81.70
2022-08-26T10:27:51.054Z,81.80
2022-08-26T10:28:44.853Z,81.70
2022-08-26T10:29:44.819Z,82.40
2022-08-26T10:30:44.785Z,82.29
2022-08-26T10:31:44.799Z,80.57
2022-08-26T10:32:44.720Z,80.87
2022-08-26T10:33:44.681Z,81.62
2022-08-26T10:34:44.663Z,80.07
2022-08-26T10:35:44.611Z,80.17
2022-08-26T10:37:10.783Z,80.77
2022-08-26T10:37:44.549Z,80.63
2022-08-26T10:38:44.512Z,79.73
2022-08-26T10:39:44.478Z,80.63
2022-08-26T10:40:44.514Z,79.03
2022-08-26T10:41:44.410Z,79.14
2022-08-26T10:42:44.376Z,79.53
2022-08-26T10:43:44.350Z,80.09
2022-08-26T10:44:44.309Z,79.83
2022-08-26T10:45:44.298Z,80.03
2022-08-26T10:46:44.253Z,79.63
2022-08-26T10:47:44.219Z,81.52
2022-08-26T10:48:44.174Z,79.93
2022-08-26T10:49:44.140Z,79.77
2022-08-26T10:50:44.104Z,81.26
2022-08-26T10:51:53.442Z,80.36
2022-08-26T10:52:44.037Z,80.17
2022-08-26T10:53:44.413Z,80.93
2022-08-26T10:54:43.967Z,80.93
2022-08-26T10:55:43.932Z,80.93
2022-08-26T10:56:43.902Z,80.09
2022-08-26T10:57:43.866Z,80.23
2022-08-26T10:58:44.646Z,80.13
2022-08-26T10:59:43.810Z,80.03
2022-08-26T11:00:44.040Z,79.97
2022-08-26T11:01:43.807Z,80.33
2022-08-26T11:02:47.540Z,80.23
2022-08-26T11:03:43.765Z,79.97
2022-08-26T11:04:48.129Z,80.07
2022-08-26T11:05:43.591Z,79.67
2022-08-26T11:06:43.560Z,79.77
2022-08-26T11:07:43.526Z,80.27
2022-08-26T11:08:43.490Z,80.47
2022-08-26T11:09:43.472Z,80.73
2022-08-26T11:10:43.422Z,79.14
2022-08-26T11:11:43.389Z,78.94
2022-08-26T11:12:43.356Z,78.90
2022-08-26T11:13:43.319Z,79.10
2022-08-26T11:14:53.951Z,78.40
2022-08-26T11:15:43.264Z,77.87
2022-08-26T11:16:43.413Z,77.77
2022-08-26T11:17:43.184Z,77.33
2022-08-26T11:18:43.151Z,77.04
2022-08-26T11:20:00.209Z,76.61
2022-08-26T11:20:43.083Z,75.81
2022-08-26T11:21:43.060Z,75.48
2022-08-26T11:22:47.702Z,75.48
2022-08-26T11:23:42.982Z,75.48
2022-08-26T11:24:42.951Z,75.51
2022-08-26T11:25:42.926Z,76.10
2022-08-26T11:26:56.013Z,76.80
2022-08-26T11:27:42.851Z,76.21
2022-08-26T11:28:43.969Z,76.31
2022-08-26T11:29:42.783Z,75.71
2022-08-26T11:30:42.755Z,75.51
2022-08-26T11:31:42.736Z,75.63
2022-08-26T11:32:42.684Z,74.84
2022-08-26T11:33:42.650Z,74.02
2022-08-26T11:34:42.618Z,73.82
2022-08-26T11:35:42.584Z,73.72
2022-08-26T11:36:42.565Z,74.02
2022-08-26T11:37:42.531Z,74.31
2022-08-26T11:38:42.485Z,73.91
2022-08-26T11:39:46.438Z,74.05
2022-08-26T11:40:42.516Z,74.55
2022-08-26T11:41:42.384Z,73.69
2022-08-26T11:42:42.643Z,74.72
2022-08-26T11:43:42.322Z,74.58
2022-08-26T11:44:42.288Z,74.19
2022-08-26T11:45:42.342Z,74.08
2022-08-26T11:46:42.224Z,74.58
2022-08-26T11:47:42.213Z,74.29
2022-08-26T11:48:42.161Z,75.18
2022-08-26T11:49:42.120Z,75.74
2022-08-26T11:50:42.088Z,73.82
2022-08-26T11:51:45.224Z,74.71
2022-08-26T11:52:42.022Z,72.99
2022-08-26T11:53:42.001Z,73.58
2022-08-26T11:54:41.954Z,73.38
2022-08-26T11:55:41.944Z,72.60
2022-08-26T11:56:41.893Z,73.09
2022-08-26T11:57:41.857Z,73.58
2022-08-26T11:58:41.828Z,73.35
2022-08-26T11:59:41.793Z,72.20
2022-08-26T12:00:45.669Z,72.96
2022-08-26T12:01:41.736Z,73.55
2022-08-26T12:02:41.692Z,73.62
2022-08-26T12:03:41.809Z,74.31
2022-08-26T12:04:41.682Z,74.05
2022-08-26T12:05:41.594Z,73.95
2022-08-26T12:06:45.335Z,74.58
2022-08-26T12:07:42.656Z,74.19
2022-08-26T12:08:41.506Z,74.48
2022-08-26T12:09:41.484Z,75.51
2022-08-26T12:10:41.429Z,75.45
2022-08-26T12:11:41.396Z,75.61
2022-08-26T12:12:41.363Z,75.05
2022-08-26T12:13:41.328Z,75.81
2022-08-26T12:14:41.305Z,74.52
2022-08-26T12:15:41.263Z,75.31
2022-08-26T12:16:41.291Z,75.71
2022-08-26T12:17:41.204Z,75.41
2022-08-26T12:18:41.165Z,75.91
2022-08-26T12:19:41.133Z,75.61
2022-08-26T12:20:41.098Z,75.21
2022-08-26T12:21:41.062Z,75.41
2022-08-26T12:22:41.030Z,75.41
2022-08-26T12:23:41.009Z,74.72
2022-08-26T12:24:40.966Z,75.55
2022-08-26T12:25:40.928Z,74.95
2022-08-26T12:26:40.896Z,76.31
2022-08-26T12:27:41.508Z,74.42
2022-08-26T12:28:40.830Z,74.76
2022-08-26T12:29:40.811Z,74.62
2022-08-26T12:30:40.763Z,75.05
2022-08-26T12:31:40.765Z,75.71
2022-08-26T12:32:57.593Z,74.72
2022-08-26T12:33:40.660Z,74.62
2022-08-26T12:34:40.628Z,73.63
2022-08-26T12:35:40.611Z,74.62
2022-08-26T12:36:40.562Z,74.72
2022-08-26T12:37:40.532Z,73.93
2022-08-26T12:38:40.497Z,75.01
2022-08-26T12:39:40.463Z,74.32
2022-08-26T12:40:40.427Z,74.42
2022-08-26T12:41:40.405Z,75.84
2022-08-26T12:42:40.362Z,75.51
2022-08-26T12:43:40.327Z,74.82
2022-08-26T12:44:40.298Z,75.81
2022-08-26T12:45:40.320Z,75.61
2022-08-26T12:46:40.232Z,75.31
2022-08-26T12:47:43.435Z,74.72
2022-08-26T12:48:40.162Z,73.93
2022-08-26T12:49:40.127Z,74.22
2022-08-26T12:50:40.094Z,74.22
2022-08-26T12:51:40.058Z,74.52
2022-08-26T12:52:40.026Z,74.42
2022-08-26T12:53:40.013Z,74.46
2022-08-26T12:54:39.958Z,74.82
2022-08-26T12:55:39.923Z,75.01